sensor_id;sensor_type;location;lat;lon;timestamp;P1;durP1;ratioP1;P2;durP2;ratioP2
22675;SDS011;12521;43.310;21.876;2023-12-20T00:01:57;56.0;;;51.0;;
22675;SDS011;12521;43.310;21.876;2023-12-20T00:06:33;56.0;;;51.0;;
22675;SDS011;12521;43.310;21.876;2023-12-20T00:11:10;51.0;;;46.0;;
22675;SDS011;12521;43.310;21.876;2023-12-20T00:15:46;51.0;;;46.0;;
22675;SDS011;12521;43.310;21.876;2023-12-20T00:20:22;46.0;;;42.0;;
22675;SDS011;12521;43.310;21.876;2023-12-20T00:24:59;46.0;;;42.0;;
22675;SDS011;12521;43.310;21.876;2023-12-20T00:29:35;58.0;;;54.0;;
22675;SDS011;12521;43.310;21.876;2023-12-20T00:34:11;58.0;;;54.0;;
22675;SDS011;12521;43.310;21.876;2023-12-20T00:38:48;58.0;;;54.0;;
22675;SDS011;12521;43.310;21.876;2023-12-20T00:43:24;70.0;;;65.0;;
22675;SDS011;12521;43.310;21.876;2023-12-20T00:48:00;70.0;;;65.0;;
22675;SDS011;12521;43.310;21.876;2023-12-20T00:52:37;71.0;;;63.0;;
22675;SDS011;12521;43.310;21.876;2023-12-20T00:57:13;71.0;;;63.0;;
22675;SDS011;12521;43.310;21.876;2023-12-20T01:01:50;72.0;;;61.0;;
22675;SDS011;12521;43.310;21.876;2023-12-20T01:06:26;72.0;;;61.0;;
22675;SDS011;12521;43.310;21.876;2023-12-20T01:11:03;74.0;;;64.0;;
22675;SDS011;12521;43.310;21.876;2023-12-20T01:15:41;74.0;;;64.0;;
22675;SDS011;12521;43.310;21.876;2023-12-20T01:20:17;75.0;;;68.0;;
22675;SDS011;12521;43.310;21.876;2023-12-20T01:24:54;75.0;;;68.0;;
22675;SDS011;12521;43.310;21.876;2023-12-20T01:29:30;64.0;;;58.0;;
22675;SDS011;12521;43.310;21.876;2023-12-20T01:34:06;64.0;;;58.0;;
22675;SDS011;12521;43.310;21.876;2023-12-20T01:38:43;64.0;;;58.0;;
22675;SDS011;12521;43.310;21.876;2023-12-20T01:43:19;52.0;;;47.0;;
22675;SDS011;12521;43.310;21.876;2023-12-20T01:47:56;52.0;;;47.0;;
22675;SDS011;12521;43.310;21.876;2023-12-20T01:52:37;42.0;;;38.0;;
22675;SDS011;12521;43.310;21.876;2023-12-20T01:57:13;42.0;;;38.0;;
22675;SDS011;12521;43.310;21.876;2023-12-20T02:01:51;33.0;;;29.0;;
22675;SDS011;12521;43.310;21.876;2023-12-20T02:06:28;33.0;;;29.0;;
22675;SDS011;12521;43.310;21.876;2023-12-20T02:11:09;32.0;;;28.0;;
22675;SDS011;12521;43.310;21.876;2023-12-20T02:15:46;32.0;;;28.0;;
22675;SDS011;12521;43.310;21.876;2023-12-20T02:20:22;31.0;;;28.0;;
22675;SDS011;12521;43.310;21.876;2023-12-20T02:24:58;31.0;;;28.0;;
22675;SDS011;12521;43.310;21.876;2023-12-20T02:29:35;30.0;;;27.0;;
22675;SDS011;12521;43.310;21.876;2023-12-20T02:34:12;30.0;;;27.0;;
22675;SDS011;12521;43.310;21.876;2023-12-20T02:38:48;30.0;;;27.0;;
22675;SDS011;12521;43.310;21.876;2023-12-20T02:43:24;28.0;;;26.0;;
22675;SDS011;12521;43.310;21.876;2023-12-20T02:48:01;28.0;;;26.0;;
22675;SDS011;12521;43.310;21.876;2023-12-20T02:52:40;28.0;;;26.0;;
22675;SDS011;12521;43.310;21.876;2023-12-20T02:57:20;28.0;;;26.0;;
22675;SDS011;12521;43.310;21.876;2023-12-20T03:01:57;29.0;;;26.0;;
22675;SDS011;12521;43.310;21.876;2023-12-20T03:06:33;29.0;;;26.0;;
22675;SDS011;12521;43.310;21.876;2023-12-20T03:11:09;32.0;;;28.0;;
22675;SDS011;12521;43.310;21.876;2023-12-20T03:15:47;32.0;;;28.0;;
22675;SDS011;12521;43.310;21.876;2023-12-20T03:20:23;35.0;;;31.0;;
22675;SDS011;12521;43.310;21.876;2023-12-20T03:24:59;35.0;;;31.0;;
22675;SDS011;12521;43.310;21.876;2023-12-20T03:29:36;35.0;;;31.0;;
22675;SDS011;12521;43.310;21.876;2023-12-20T03:34:12;28.0;;;26.0;;
22675;SDS011;12521;43.310;21.876;2023-12-20T03:38:48;28.0;;;26.0;;
22675;SDS011;12521;43.310;21.876;2023-12-20T03:43:24;22.0;;;21.0;;
22675;SDS011;12521;43.310;21.876;2023-12-20T03:48:00;22.0;;;21.0;;
22675;SDS011;12521;43.310;21.876;2023-12-20T03:52:37;24.0;;;20.0;;
22675;SDS011;12521;43.310;21.876;2023-12-20T03:57:13;24.0;;;20.0;;
22675;SDS011;12521;43.310;21.876;2023-12-20T04:01:50;25.0;;;20.0;;
22675;SDS011;12521;43.310;21.876;2023-12-20T04:06:26;25.0;;;20.0;;
22675;SDS011;12521;43.310;21.876;2023-12-20T04:11:07;24.0;;;21.0;;
22675;SDS011;12521;43.310;21.876;2023-12-20T04:15:43;24.0;;;21.0;;
22675;SDS011;12521;43.310;21.876;2023-12-20T04:20:19;24.0;;;22.0;;
22675;SDS011;12521;43.310;21.876;2023-12-20T04:24:55;24.0;;;22.0;;
22675;SDS011;12521;43.310;21.876;2023-12-20T04:29:32;24.0;;;22.0;;
22675;SDS011;12521;43.310;21.876;2023-12-20T04:34:08;28.0;;;24.0;;
22675;SDS011;12521;43.310;21.876;2023-12-20T04:38:45;28.0;;;24.0;;
22675;SDS011;12521;43.310;21.876;2023-12-20T04:43:21;31.0;;;27.0;;
22675;SDS011;12521;43.310;21.876;2023-12-20T04:47:57;31.0;;;27.0;;
22675;SDS011;12521;43.310;21.876;2023-12-20T04:52:34;28.0;;;26.0;;
22675;SDS011;12521;43.310;21.876;2023-12-20T04:57:10;28.0;;;26.0;;
22675;SDS011;12521;43.310;21.876;2023-12-20T05:01:47;26.0;;;25.0;;
22675;SDS011;12521;43.310;21.876;2023-12-20T05:06:23;26.0;;;25.0;;
22675;SDS011;12521;43.310;21.876;2023-12-20T05:10:59;38.0;;;36.0;;
22675;SDS011;12521;43.310;21.876;2023-12-20T05:15:37;38.0;;;36.0;;
22675;SDS011;12521;43.310;21.876;2023-12-20T05:20:13;51.0;;;47.0;;
22675;SDS011;12521;43.310;21.876;2023-12-20T05:24:50;51.0;;;47.0;;
22675;SDS011;12521;43.310;21.876;2023-12-20T05:29:26;51.0;;;47.0;;
22675;SDS011;12521;43.310;21.876;2023-12-20T05:34:02;41.0;;;38.0;;
22675;SDS011;12521;43.310;21.876;2023-12-20T05:38:39;41.0;;;38.0;;
22675;SDS011;12521;43.310;21.876;2023-12-20T05:43:15;31.0;;;28.0;;
22675;SDS011;12521;43.310;21.876;2023-12-20T05:47:51;31.0;;;28.0;;
22675;SDS011;12521;43.310;21.876;2023-12-20T05:52:28;34.0;;;32.0;;
22675;SDS011;12521;43.310;21.876;2023-12-20T05:57:04;34.0;;;32.0;;
22675;SDS011;12521;43.310;21.876;2023-12-20T06:01:40;38.0;;;37.0;;
22675;SDS011;12521;43.310;21.876;2023-12-20T06:06:16;38.0;;;37.0;;
22675;SDS011;12521;43.310;21.876;2023-12-20T06:10:52;34.0;;;29.0;;
22675;SDS011;12521;43.310;21.876;2023-12-20T06:15:29;34.0;;;29.0;;
22675;SDS011;12521;43.310;21.876;2023-12-20T06:20:07;30.0;;;21.0;;
22675;SDS011;12521;43.310;21.876;2023-12-20T06:24:46;30.0;;;21.0;;
22675;SDS011;12521;43.310;21.876;2023-12-20T06:29:22;30.0;;;21.0;;
22675;SDS011;12521;43.310;21.876;2023-12-20T06:33:58;27.0;;;21.0;;
22675;SDS011;12521;43.310;21.876;2023-12-20T06:38:36;27.0;;;21.0;;
22675;SDS011;12521;43.310;21.876;2023-12-20T06:43:12;24.0;;;21.0;;
22675;SDS011;12521;43.310;21.876;2023-12-20T06:47:49;24.0;;;21.0;;
22675;SDS011;12521;43.310;21.876;2023-12-20T06:52:25;26.0;;;23.0;;
22675;SDS011;12521;43.310;21.876;2023-12-20T06:57:02;26.0;;;23.0;;
22675;SDS011;12521;43.310;21.876;2023-12-20T07:01:39;27.0;;;25.0;;
22675;SDS011;12521;43.310;21.876;2023-12-20T07:06:15;27.0;;;25.0;;
22675;SDS011;12521;43.310;21.876;2023-12-20T07:10:52;30.0;;;28.0;;
22675;SDS011;12521;43.310;21.876;2023-12-20T07:15:28;30.0;;;28.0;;
22675;SDS011;12521;43.310;21.876;2023-12-20T07:20:05;33.0;;;31.0;;
22675;SDS011;12521;43.310;21.876;2023-12-20T07:24:45;33.0;;;31.0;;
22675;SDS011;12521;43.310;21.876;2023-12-20T07:29:21;33.0;;;31.0;;
22675;SDS011;12521;43.310;21.876;2023-12-20T07:33:58;27.0;;;24.0;;
22675;SDS011;12521;43.310;21.876;2023-12-20T07:38:34;27.0;;;24.0;;
22675;SDS011;12521;43.310;21.876;2023-12-20T07:43:10;21.0;;;18.0;;
22675;SDS011;12521;43.310;21.876;2023-12-20T07:47:46;21.0;;;18.0;;
22675;SDS011;12521;43.310;21.876;2023-12-20T07:52:23;32.0;;;26.0;;
22675;SDS011;12521;43.310;21.876;2023-12-20T07:56:59;32.0;;;26.0;;
22675;SDS011;12521;43.310;21.876;2023-12-20T08:01:35;44.0;;;34.0;;
22675;SDS011;12521;43.310;21.876;2023-12-20T08:06:12;44.0;;;34.0;;
22675;SDS011;12521;43.310;21.876;2023-12-20T08:10:48;58.0;;;47.0;;
22675;SDS011;12521;43.310;21.876;2023-12-20T08:15:24;58.0;;;47.0;;
22675;SDS011;12521;43.310;21.876;2023-12-20T08:20:03;71.0;;;60.0;;
22675;SDS011;12521;43.310;21.876;2023-12-20T08:24:43;71.0;;;60.0;;
22675;SDS011;12521;43.310;21.876;2023-12-20T08:29:19;71.0;;;60.0;;
22675;SDS011;12521;43.310;21.876;2023-12-20T08:33:56;58.0;;;50.0;;
22675;SDS011;12521;43.310;21.876;2023-12-20T08:38:32;58.0;;;50.0;;
22675;SDS011;12521;43.310;21.876;2023-12-20T08:43:09;46.0;;;41.0;;
22675;SDS011;12521;43.310;21.876;2023-12-20T08:47:46;46.0;;;41.0;;
22675;SDS011;12521;43.310;21.876;2023-12-20T08:52:22;32.0;;;28.0;;
22675;SDS011;12521;43.310;21.876;2023-12-20T08:56:59;32.0;;;28.0;;
22675;SDS011;12521;43.310;21.876;2023-12-20T09:01:35;18.0;;;16.0;;
22675;SDS011;12521;43.310;21.876;2023-12-20T09:06:11;18.0;;;16.0;;
22675;SDS011;12521;43.310;21.876;2023-12-20T09:10:47;19.0;;;16.0;;
22675;SDS011;12521;43.310;21.876;2023-12-20T09:15:24;19.0;;;16.0;;
22675;SDS011;12521;43.310;21.876;2023-12-20T09:20:02;20.0;;;17.0;;
22675;SDS011;12521;43.310;21.876;2023-12-20T09:24:42;20.0;;;17.0;;
22675;SDS011;12521;43.310;21.876;2023-12-20T09:29:19;20.0;;;17.0;;
22675;SDS011;12521;43.310;21.876;2023-12-20T09:33:55;30.0;;;26.0;;
22675;SDS011;12521;43.310;21.876;2023-12-20T09:38:31;30.0;;;26.0;;
22675;SDS011;12521;43.310;21.876;2023-12-20T09:43:09;41.0;;;36.0;;
22675;SDS011;12521;43.310;21.876;2023-12-20T09:47:55;41.0;;;36.0;;
22675;SDS011;12521;43.310;21.876;2023-12-20T09:52:35;34.0;;;29.0;;
22675;SDS011;12521;43.310;21.876;2023-12-20T09:57:18;34.0;;;29.0;;
22675;SDS011;12521;43.310;21.876;2023-12-20T10:01:55;26.0;;;22.0;;
22675;SDS011;12521;43.310;21.876;2023-12-20T10:06:36;26.0;;;22.0;;
22675;SDS011;12521;43.310;21.876;2023-12-20T10:11:14;29.0;;;25.0;;
22675;SDS011;12521;43.310;21.876;2023-12-20T10:15:51;29.0;;;25.0;;
22675;SDS011;12521;43.310;21.876;2023-12-20T10:20:28;32.0;;;28.0;;
22675;SDS011;12521;43.310;21.876;2023-12-20T10:25:07;32.0;;;28.0;;
22675;SDS011;12521;43.310;21.876;2023-12-20T10:29:44;32.0;;;28.0;;
22675;SDS011;12521;43.310;21.876;2023-12-20T10:34:20;32.0;;;26.0;;
22675;SDS011;12521;43.310;21.876;2023-12-20T10:38:57;32.0;;;26.0;;
22675;SDS011;12521;43.310;21.876;2023-12-20T10:43:36;31.0;;;23.0;;
22675;SDS011;12521;43.310;21.876;2023-12-20T10:48:17;31.0;;;23.0;;
22675;SDS011;12521;43.310;21.876;2023-12-20T10:52:58;30.0;;;22.0;;
22675;SDS011;12521;43.310;21.876;2023-12-20T10:57:35;30.0;;;22.0;;
22675;SDS011;12521;43.310;21.876;2023-12-20T11:02:13;30.0;;;20.0;;
22675;SDS011;12521;43.310;21.876;2023-12-20T11:06:51;30.0;;;20.0;;
22675;SDS011;12521;43.310;21.876;2023-12-20T11:12:09;32.0;;;24.0;;
22675;SDS011;12521;43.310;21.876;2023-12-20T11:17:16;32.0;;;24.0;;
22675;SDS011;12521;43.310;21.876;2023-12-20T11:21:53;35.0;;;28.0;;
22675;SDS011;12521;43.310;21.876;2023-12-20T11:26:29;35.0;;;28.0;;
22675;SDS011;12521;43.310;21.876;2023-12-20T11:31:05;33.0;;;26.0;;
22675;SDS011;12521;43.310;21.876;2023-12-20T11:35:41;33.0;;;26.0;;
22675;SDS011;12521;43.310;21.876;2023-12-20T11:40:22;31.0;;;25.0;;
22675;SDS011;12521;43.310;21.876;2023-12-20T11:44:59;31.0;;;25.0;;
22675;SDS011;12521;43.310;21.876;2023-12-20T11:49:39;31.0;;;25.0;;
22675;SDS011;12521;43.310;21.876;2023-12-20T11:54:15;26.0;;;22.0;;
22675;SDS011;12521;43.310;21.876;2023-12-20T11:58:52;26.0;;;22.0;;
22675;SDS011;12521;43.310;21.876;2023-12-20T12:03:31;22.0;;;20.0;;
22675;SDS011;12521;43.310;21.876;2023-12-20T12:08:07;22.0;;;20.0;;
22675;SDS011;12521;43.310;21.876;2023-12-20T12:12:43;24.0;;;20.0;;
22675;SDS011;12521;43.310;21.876;2023-12-20T12:17:20;24.0;;;20.0;;
22675;SDS011;12521;43.310;21.876;2023-12-20T12:22:07;25.0;;;21.0;;
22675;SDS011;12521;43.310;21.876;2023-12-20T12:26:50;25.0;;;21.0;;
22675;SDS011;12521;43.310;21.876;2023-12-20T12:31:27;29.0;;;22.0;;
22675;SDS011;12521;43.310;21.876;2023-12-20T12:36:04;29.0;;;22.0;;
22675;SDS011;12521;43.310;21.876;2023-12-20T12:40:43;33.0;;;23.0;;
22675;SDS011;12521;43.310;21.876;2023-12-20T12:45:19;33.0;;;23.0;;
22675;SDS011;12521;43.310;21.876;2023-12-20T12:49:55;33.0;;;23.0;;
22675;SDS011;12521;43.310;21.876;2023-12-20T12:54:32;36.0;;;23.0;;
22675;SDS011;12521;43.310;21.876;2023-12-20T12:59:08;36.0;;;23.0;;
22675;SDS011;12521;43.310;21.876;2023-12-20T13:03:45;38.0;;;23.0;;
22675;SDS011;12521;43.310;21.876;2023-12-20T13:08:21;38.0;;;23.0;;
22675;SDS011;12521;43.310;21.876;2023-12-20T13:12:58;38.0;;;26.0;;
22675;SDS011;12521;43.310;21.876;2023-12-20T13:17:34;38.0;;;26.0;;
22675;SDS011;12521;43.310;21.876;2023-12-20T13:22:11;37.0;;;28.0;;
22675;SDS011;12521;43.310;21.876;2023-12-20T13:26:47;37.0;;;28.0;;
22675;SDS011;12521;43.310;21.876;2023-12-20T13:31:23;36.0;;;29.0;;
22675;SDS011;12521;43.310;21.876;2023-12-20T13:36:00;36.0;;;29.0;;
22675;SDS011;12521;43.310;21.876;2023-12-20T13:40:37;36.0;;;30.0;;
22675;SDS011;12521;43.310;21.876;2023-12-20T13:45:14;36.0;;;30.0;;
22675;SDS011;12521;43.310;21.876;2023-12-20T13:49:51;36.0;;;30.0;;
22675;SDS011;12521;43.310;21.876;2023-12-20T13:54:28;42.0;;;35.0;;
22675;SDS011;12521;43.310;21.876;2023-12-20T13:59:04;42.0;;;35.0;;
22675;SDS011;12521;43.310;21.876;2023-12-20T14:03:40;49.0;;;40.0;;
22675;SDS011;12521;43.310;21.876;2023-12-20T14:08:17;49.0;;;40.0;;
22675;SDS011;12521;43.310;21.876;2023-12-20T14:12:53;59.0;;;50.0;;
22675;SDS011;12521;43.310;21.876;2023-12-20T14:17:30;59.0;;;50.0;;
22675;SDS011;12521;43.310;21.876;2023-12-20T14:22:06;69.0;;;59.0;;
22675;SDS011;12521;43.310;21.876;2023-12-20T14:26:42;69.0;;;59.0;;
22675;SDS011;12521;43.310;21.876;2023-12-20T14:31:19;72.0;;;56.0;;
22675;SDS011;12521;43.310;21.876;2023-12-20T14:35:55;72.0;;;56.0;;
22675;SDS011;12521;43.310;21.876;2023-12-20T14:40:31;75.0;;;53.0;;
22675;SDS011;12521;43.310;21.876;2023-12-20T14:45:08;75.0;;;53.0;;
22675;SDS011;12521;43.310;21.876;2023-12-20T14:49:47;75.0;;;53.0;;
22675;SDS011;12521;43.310;21.876;2023-12-20T14:54:23;80.0;;;64.0;;
22675;SDS011;12521;43.310;21.876;2023-12-20T14:59:00;80.0;;;64.0;;
22675;SDS011;12521;43.310;21.876;2023-12-20T15:03:36;86.0;;;75.0;;
22675;SDS011;12521;43.310;21.876;2023-12-20T15:08:13;86.0;;;75.0;;
22675;SDS011;12521;43.310;21.876;2023-12-20T15:12:50;94.0;;;76.0;;
22675;SDS011;12521;43.310;21.876;2023-12-20T15:17:27;94.0;;;76.0;;
22675;SDS011;12521;43.310;21.876;2023-12-20T15:22:03;102.0;;;76.0;;
22675;SDS011;12521;43.310;21.876;2023-12-20T15:26:39;102.0;;;76.0;;
22675;SDS011;12521;43.310;21.876;2023-12-20T15:31:18;100.0;;;80.0;;
22675;SDS011;12521;43.310;21.876;2023-12-20T15:35:54;100.0;;;80.0;;
22675;SDS011;12521;43.310;21.876;2023-12-20T15:40:30;98.0;;;83.0;;
22675;SDS011;12521;43.310;21.876;2023-12-20T15:45:07;98.0;;;83.0;;
22675;SDS011;12521;43.310;21.876;2023-12-20T15:49:45;98.0;;;83.0;;
22675;SDS011;12521;43.310;21.876;2023-12-20T15:54:22;112.0;;;96.0;;
22675;SDS011;12521;43.310;21.876;2023-12-20T15:58:58;112.0;;;96.0;;
22675;SDS011;12521;43.310;21.876;2023-12-20T16:03:34;125.0;;;108.0;;
22675;SDS011;12521;43.310;21.876;2023-12-20T16:08:11;125.0;;;108.0;;
22675;SDS011;12521;43.310;21.876;2023-12-20T16:12:48;125.0;;;102.0;;
22675;SDS011;12521;43.310;21.876;2023-12-20T16:17:24;125.0;;;102.0;;
22675;SDS011;12521;43.310;21.876;2023-12-20T16:22:00;125.0;;;97.0;;
22675;SDS011;12521;43.310;21.876;2023-12-20T16:26:37;125.0;;;97.0;;
22675;SDS011;12521;43.310;21.876;2023-12-20T16:31:13;110.0;;;88.0;;
22675;SDS011;12521;43.310;21.876;2023-12-20T16:35:50;110.0;;;88.0;;
22675;SDS011;12521;43.310;21.876;2023-12-20T16:40:26;96.0;;;78.0;;
22675;SDS011;12521;43.310;21.876;2023-12-20T16:45:03;96.0;;;78.0;;
22675;SDS011;12521;43.310;21.876;2023-12-20T16:49:43;96.0;;;78.0;;
22675;SDS011;12521;43.310;21.876;2023-12-20T16:54:20;126.0;;;100.0;;
22675;SDS011;12521;43.310;21.876;2023-12-20T16:58:56;126.0;;;100.0;;
22675;SDS011;12521;43.310;21.876;2023-12-20T17:03:32;157.0;;;123.0;;
22675;SDS011;12521;43.310;21.876;2023-12-20T17:08:08;157.0;;;123.0;;
22675;SDS011;12521;43.310;21.876;2023-12-20T17:12:45;128.0;;;106.0;;
22675;SDS011;12521;43.310;21.876;2023-12-20T17:17:21;128.0;;;106.0;;
22675;SDS011;12521;43.310;21.876;2023-12-20T17:21:57;99.0;;;88.0;;
22675;SDS011;12521;43.310;21.876;2023-12-20T17:26:34;99.0;;;88.0;;
22675;SDS011;12521;43.310;21.876;2023-12-20T17:31:10;112.0;;;93.0;;
22675;SDS011;12521;43.310;21.876;2023-12-20T17:35:47;112.0;;;93.0;;
22675;SDS011;12521;43.310;21.876;2023-12-20T17:40:23;112.0;;;93.0;;
22675;SDS011;12521;43.310;21.876;2023-12-20T17:44:59;126.0;;;98.0;;
22675;SDS011;12521;43.310;21.876;2023-12-20T17:49:36;126.0;;;98.0;;
22675;SDS011;12521;43.310;21.876;2023-12-20T17:54:12;122.0;;;102.0;;
22675;SDS011;12521;43.310;21.876;2023-12-20T17:58:49;122.0;;;102.0;;
22675;SDS011;12521;43.310;21.876;2023-12-20T18:03:25;119.0;;;105.0;;
22675;SDS011;12521;43.310;21.876;2023-12-20T18:08:02;119.0;;;105.0;;
22675;SDS011;12521;43.310;21.876;2023-12-20T18:12:40;118.0;;;104.0;;
22675;SDS011;12521;43.310;21.876;2023-12-20T18:17:17;118.0;;;104.0;;
22675;SDS011;12521;43.310;21.876;2023-12-20T18:21:54;117.0;;;103.0;;
22675;SDS011;12521;43.310;21.876;2023-12-20T18:26:30;117.0;;;103.0;;
22675;SDS011;12521;43.310;21.876;2023-12-20T18:31:07;111.0;;;96.0;;
22675;SDS011;12521;43.310;21.876;2023-12-20T18:35:43;111.0;;;96.0;;
22675;SDS011;12521;43.310;21.876;2023-12-20T18:40:19;111.0;;;96.0;;
22675;SDS011;12521;43.310;21.876;2023-12-20T18:44:56;105.0;;;89.0;;
22675;SDS011;12521;43.310;21.876;2023-12-20T18:49:33;105.0;;;89.0;;
22675;SDS011;12521;43.310;21.876;2023-12-20T18:54:10;90.0;;;77.0;;
22675;SDS011;12521;43.310;21.876;2023-12-20T18:58:46;90.0;;;77.0;;
22675;SDS011;12521;43.310;21.876;2023-12-20T19:03:23;76.0;;;65.0;;
22675;SDS011;12521;43.310;21.876;2023-12-20T19:07:59;76.0;;;65.0;;
22675;SDS011;12521;43.310;21.876;2023-12-20T19:12:36;106.0;;;80.0;;
22675;SDS011;12521;43.310;21.876;2023-12-20T19:17:12;106.0;;;80.0;;
22675;SDS011;12521;43.310;21.876;2023-12-20T19:21:48;137.0;;;94.0;;
22675;SDS011;12521;43.310;21.876;2023-12-20T19:26:25;137.0;;;94.0;;
22675;SDS011;12521;43.310;21.876;2023-12-20T19:31:01;107.0;;;74.0;;
22675;SDS011;12521;43.310;21.876;2023-12-20T19:35:38;107.0;;;74.0;;
22675;SDS011;12521;43.310;21.876;2023-12-20T19:40:15;107.0;;;74.0;;
22675;SDS011;12521;43.310;21.876;2023-12-20T19:44:51;77.0;;;55.0;;
22675;SDS011;12521;43.310;21.876;2023-12-20T19:49:27;77.0;;;55.0;;
22675;SDS011;12521;43.310;21.876;2023-12-20T19:54:04;66.0;;;50.0;;
22675;SDS011;12521;43.310;21.876;2023-12-20T19:58:41;66.0;;;50.0;;
22675;SDS011;12521;43.310;21.876;2023-12-20T20:03:17;55.0;;;45.0;;
22675;SDS011;12521;43.310;21.876;2023-12-20T20:07:53;55.0;;;45.0;;
22675;SDS011;12521;43.310;21.876;2023-12-20T20:12:30;50.0;;;40.0;;
22675;SDS011;12521;43.310;21.876;2023-12-20T20:17:06;50.0;;;40.0;;
22675;SDS011;12521;43.310;21.876;2023-12-20T20:21:43;44.0;;;34.0;;
22675;SDS011;12521;43.310;21.876;2023-12-20T20:26:19;44.0;;;34.0;;
22675;SDS011;12521;43.310;21.876;2023-12-20T20:30:56;41.0;;;32.0;;
22675;SDS011;12521;43.310;21.876;2023-12-20T20:35:33;41.0;;;32.0;;
22675;SDS011;12521;43.310;21.876;2023-12-20T20:40:09;41.0;;;32.0;;
22675;SDS011;12521;43.310;21.876;2023-12-20T20:44:46;38.0;;;31.0;;
22675;SDS011;12521;43.310;21.876;2023-12-20T20:49:22;38.0;;;31.0;;
22675;SDS011;12521;43.310;21.876;2023-12-20T20:53:58;33.0;;;28.0;;
22675;SDS011;12521;43.310;21.876;2023-12-20T20:58:36;33.0;;;28.0;;
22675;SDS011;12521;43.310;21.876;2023-12-20T21:03:12;28.0;;;26.0;;
22675;SDS011;12521;43.310;21.876;2023-12-20T21:07:49;28.0;;;26.0;;
22675;SDS011;12521;43.310;21.876;2023-12-20T21:12:25;32.0;;;28.0;;
22675;SDS011;12521;43.310;21.876;2023-12-20T21:17:02;32.0;;;28.0;;
22675;SDS011;12521;43.310;21.876;2023-12-20T21:21:39;37.0;;;31.0;;
22675;SDS011;12521;43.310;21.876;2023-12-20T21:26:16;37.0;;;31.0;;
22675;SDS011;12521;43.310;21.876;2023-12-20T21:30:52;38.0;;;32.0;;
22675;SDS011;12521;43.310;21.876;2023-12-20T21:35:28;38.0;;;32.0;;
22675;SDS011;12521;43.310;21.876;2023-12-20T21:40:06;38.0;;;32.0;;
22675;SDS011;12521;43.310;21.876;2023-12-20T21:44:46;38.0;;;34.0;;
22675;SDS011;12521;43.310;21.876;2023-12-20T21:49:22;38.0;;;34.0;;
22675;SDS011;12521;43.310;21.876;2023-12-20T21:53:59;41.0;;;34.0;;
22675;SDS011;12521;43.310;21.876;2023-12-20T21:58:36;41.0;;;34.0;;
22675;SDS011;12521;43.310;21.876;2023-12-20T22:03:13;44.0;;;33.0;;
22675;SDS011;12521;43.310;21.876;2023-12-20T22:07:49;44.0;;;33.0;;
22675;SDS011;12521;43.310;21.876;2023-12-20T22:12:25;48.0;;;38.0;;
22675;SDS011;12521;43.310;21.876;2023-12-20T22:17:02;48.0;;;38.0;;
22675;SDS011;12521;43.310;21.876;2023-12-20T22:21:39;53.0;;;44.0;;
22675;SDS011;12521;43.310;21.876;2023-12-20T22:26:15;53.0;;;44.0;;
22675;SDS011;12521;43.310;21.876;2023-12-20T22:30:52;52.0;;;44.0;;
22675;SDS011;12521;43.310;21.876;2023-12-20T22:35:28;52.0;;;44.0;;
22675;SDS011;12521;43.310;21.876;2023-12-20T22:40:05;52.0;;;44.0;;
22675;SDS011;12521;43.310;21.876;2023-12-20T22:44:46;50.0;;;44.0;;
22675;SDS011;12521;43.310;21.876;2023-12-20T22:49:23;50.0;;;44.0;;
22675;SDS011;12521;43.310;21.876;2023-12-20T22:53:59;51.0;;;39.0;;
22675;SDS011;12521;43.310;21.876;2023-12-20T22:58:36;51.0;;;39.0;;
22675;SDS011;12521;43.310;21.876;2023-12-20T23:03:14;52.0;;;34.0;;
22675;SDS011;12521;43.310;21.876;2023-12-20T23:07:50;52.0;;;34.0;;
22675;SDS011;12521;43.310;21.876;2023-12-20T23:12:26;48.0;;;36.0;;
22675;SDS011;12521;43.310;21.876;2023-12-20T23:17:03;48.0;;;36.0;;
22675;SDS011;12521;43.310;21.876;2023-12-20T23:21:39;43.0;;;37.0;;
22675;SDS011;12521;43.310;21.876;2023-12-20T23:26:15;43.0;;;37.0;;
22675;SDS011;12521;43.310;21.876;2023-12-20T23:30:51;41.0;;;36.0;;
22675;SDS011;12521;43.310;21.876;2023-12-20T23:35:27;41.0;;;36.0;;
22675;SDS011;12521;43.310;21.876;2023-12-20T23:40:04;41.0;;;36.0;;
22675;SDS011;12521;43.310;21.876;2023-12-20T23:44:43;39.0;;;35.0;;
22675;SDS011;12521;43.310;21.876;2023-12-20T23:49:19;39.0;;;35.0;;
22675;SDS011;12521;43.310;21.876;2023-12-20T23:53:56;44.0;;;40.0;;
22675;SDS011;12521;43.310;21.876;2023-12-20T23:58:32;44.0;;;40.0;;
